sensor_id;sensor_type;location;lat;lon;timestamp;P1;durP1;ratioP1;P2;durP2;ratioP2
70450;SDS011;58869;51.982;4.450;2023-04-29T00:01:33;26.28;;;26.08;;
70450;SDS011;58869;51.982;4.450;2023-04-29T00:04:08;25.60;;;25.57;;
70450;SDS011;58869;51.982;4.450;2023-04-29T00:06:34;25.42;;;25.26;;
70450;SDS011;58869;51.982;4.450;2023-04-29T00:09:06;24.64;;;24.60;;
70450;SDS011;58869;51.982;4.450;2023-04-29T00:11:31;25.32;;;25.32;;
70450;SDS011;58869;51.982;4.450;2023-04-29T00:13:58;24.92;;;24.89;;
70450;SDS011;58869;51.982;4.450;2023-04-29T00:16:27;25.25;;;25.18;;
70450;SDS011;58869;51.982;4.450;2023-04-29T00:19:01;25.40;;;25.19;;
70450;SDS011;58869;51.982;4.450;2023-04-29T00:21:29;25.74;;;25.70;;
70450;SDS011;58869;51.982;4.450;2023-04-29T00:23:58;25.92;;;25.85;;
70450;SDS011;58869;51.982;4.450;2023-04-29T00:26:24;26.40;;;26.40;;
70450;SDS011;58869;51.982;4.450;2023-04-29T00:28:56;26.71;;;26.70;;
70450;SDS011;58869;51.982;4.450;2023-04-29T00:31:26;25.98;;;25.98;;
70450;SDS011;58869;51.982;4.450;2023-04-29T00:33:51;25.89;;;25.88;;
70450;SDS011;58869;51.982;4.450;2023-04-29T00:36:18;26.66;;;26.65;;
70450;SDS011;58869;51.982;4.450;2023-04-29T00:38:50;27.21;;;27.21;;
70450;SDS011;58869;51.982;4.450;2023-04-29T00:41:24;26.77;;;26.76;;
70450;SDS011;58869;51.982;4.450;2023-04-29T00:43:50;26.81;;;26.81;;
70450;SDS011;58869;51.982;4.450;2023-04-29T00:46:16;28.69;;;28.69;;
70450;SDS011;58869;51.982;4.450;2023-04-29T00:48:45;27.65;;;27.58;;
70450;SDS011;58869;51.982;4.450;2023-04-29T00:51:10;29.15;;;28.92;;
70450;SDS011;58869;51.982;4.450;2023-04-29T00:53:38;29.38;;;29.13;;
70450;SDS011;58869;51.982;4.450;2023-04-29T00:56:03;29.47;;;29.37;;
70450;SDS011;58869;51.982;4.450;2023-04-29T00:58:31;30.79;;;30.21;;
70450;SDS011;58869;51.982;4.450;2023-04-29T01:01:08;31.07;;;30.70;;
70450;SDS011;58869;51.982;4.450;2023-04-29T01:03:40;30.69;;;30.65;;
70450;SDS011;58869;51.982;4.450;2023-04-29T01:12:25;28.10;;;28.10;;
70450;SDS011;58869;51.982;4.450;2023-04-29T01:15:42;27.25;;;27.03;;
70450;SDS011;58869;51.982;4.450;2023-04-29T01:17:50;27.02;;;26.93;;
70450;SDS011;58869;51.982;4.450;2023-04-29T01:20:24;28.13;;;27.66;;
70450;SDS011;58869;51.982;4.450;2023-04-29T01:22:50;27.15;;;27.12;;
70450;SDS011;58869;51.982;4.450;2023-04-29T01:25:16;27.96;;;27.87;;
70450;SDS011;58869;51.982;4.450;2023-04-29T01:33:16;28.57;;;28.36;;
70450;SDS011;58869;51.982;4.450;2023-04-29T01:44:12;29.09;;;28.80;;
70450;SDS011;58869;51.982;4.450;2023-04-29T01:46:41;29.17;;;28.97;;
70450;SDS011;58869;51.982;4.450;2023-04-29T01:49:08;30.15;;;29.30;;
70450;SDS011;58869;51.982;4.450;2023-04-29T01:51:33;29.58;;;29.31;;
70450;SDS011;58869;51.982;4.450;2023-04-29T01:53:59;28.46;;;28.12;;
70450;SDS011;58869;51.982;4.450;2023-04-29T01:56:24;28.33;;;27.89;;
70450;SDS011;58869;51.982;4.450;2023-04-29T01:58:50;27.66;;;27.26;;
70450;SDS011;58869;51.982;4.450;2023-04-29T02:01:15;27.07;;;27.04;;
70450;SDS011;58869;51.982;4.450;2023-04-29T02:03:41;27.40;;;27.36;;
70450;SDS011;58869;51.982;4.450;2023-04-29T02:06:07;27.29;;;27.03;;
70450;SDS011;58869;51.982;4.450;2023-04-29T02:08:32;27.93;;;27.75;;
70450;SDS011;58869;51.982;4.450;2023-04-29T02:10:58;27.55;;;27.29;;
70450;SDS011;58869;51.982;4.450;2023-04-29T02:13:24;28.37;;;27.95;;
70450;SDS011;58869;51.982;4.450;2023-04-29T02:15:50;27.74;;;27.46;;
70450;SDS011;58869;51.982;4.450;2023-04-29T02:18:16;26.54;;;26.51;;
70450;SDS011;58869;51.982;4.450;2023-04-29T02:20:42;27.14;;;26.83;;
70450;SDS011;58869;51.982;4.450;2023-04-29T02:23:07;25.68;;;25.64;;
70450;SDS011;58869;51.982;4.450;2023-04-29T02:25:33;24.66;;;24.61;;
70450;SDS011;58869;51.982;4.450;2023-04-29T02:27:58;24.40;;;24.37;;
70450;SDS011;58869;51.982;4.450;2023-04-29T02:30:24;24.69;;;24.68;;
70450;SDS011;58869;51.982;4.450;2023-04-29T02:32:50;24.40;;;24.15;;
70450;SDS011;58869;51.982;4.450;2023-04-29T02:35:17;24.53;;;24.37;;
70450;SDS011;58869;51.982;4.450;2023-04-29T02:37:42;23.51;;;23.46;;
70450;SDS011;58869;51.982;4.450;2023-04-29T02:40:09;23.64;;;23.58;;
70450;SDS011;58869;51.982;4.450;2023-04-29T02:42:57;23.81;;;23.75;;
70450;SDS011;58869;51.982;4.450;2023-04-29T02:45:29;24.58;;;24.55;;
70450;SDS011;58869;51.982;4.450;2023-04-29T02:48:00;23.10;;;23.07;;
70450;SDS011;58869;51.982;4.450;2023-04-29T02:50:26;23.22;;;23.20;;
70450;SDS011;58869;51.982;4.450;2023-04-29T02:52:51;23.05;;;22.98;;
70450;SDS011;58869;51.982;4.450;2023-04-29T02:55:17;22.77;;;22.76;;
70450;SDS011;58869;51.982;4.450;2023-04-29T02:57:42;22.63;;;22.60;;
70450;SDS011;58869;51.982;4.450;2023-04-29T03:00:08;22.06;;;22.06;;
70450;SDS011;58869;51.982;4.450;2023-04-29T03:02:42;22.05;;;21.97;;
70450;SDS011;58869;51.982;4.450;2023-04-29T03:05:07;22.41;;;22.25;;
70450;SDS011;58869;51.982;4.450;2023-04-29T03:07:33;22.29;;;22.20;;
70450;SDS011;58869;51.982;4.450;2023-04-29T03:09:59;21.69;;;21.63;;
70450;SDS011;58869;51.982;4.450;2023-04-29T03:12:24;22.11;;;21.94;;
70450;SDS011;58869;51.982;4.450;2023-04-29T03:14:50;22.14;;;22.13;;
70450;SDS011;58869;51.982;4.450;2023-04-29T03:17:18;22.44;;;22.33;;
70450;SDS011;58869;51.982;4.450;2023-04-29T03:19:44;22.31;;;22.19;;
70450;SDS011;58869;51.982;4.450;2023-04-29T03:22:15;21.93;;;21.89;;
70450;SDS011;58869;51.982;4.450;2023-04-29T03:24:44;21.28;;;21.27;;
70450;SDS011;58869;51.982;4.450;2023-04-29T03:27:09;21.40;;;21.27;;
70450;SDS011;58869;51.982;4.450;2023-04-29T03:32:08;21.65;;;21.47;;
70450;SDS011;58869;51.982;4.450;2023-04-29T03:34:33;21.55;;;21.43;;
70450;SDS011;58869;51.982;4.450;2023-04-29T03:36:59;22.28;;;21.96;;
70450;SDS011;58869;51.982;4.450;2023-04-29T03:39:27;22.02;;;21.77;;
70450;SDS011;58869;51.982;4.450;2023-04-29T03:41:56;21.93;;;21.64;;
70450;SDS011;58869;51.982;4.450;2023-04-29T03:44:23;21.35;;;21.14;;
70450;SDS011;58869;51.982;4.450;2023-04-29T03:46:49;21.38;;;21.27;;
70450;SDS011;58869;51.982;4.450;2023-04-29T03:49:19;21.67;;;21.54;;
70450;SDS011;58869;51.982;4.450;2023-04-29T03:51:45;21.12;;;21.07;;
70450;SDS011;58869;51.982;4.450;2023-04-29T03:54:11;21.52;;;21.51;;
70450;SDS011;58869;51.982;4.450;2023-04-29T03:56:46;21.59;;;21.33;;
70450;SDS011;58869;51.982;4.450;2023-04-29T03:59:15;22.12;;;21.85;;
70450;SDS011;58869;51.982;4.450;2023-04-29T04:01:42;21.95;;;21.62;;
70450;SDS011;58869;51.982;4.450;2023-04-29T04:04:08;21.13;;;21.12;;
70450;SDS011;58869;51.982;4.450;2023-04-29T04:06:38;21.36;;;21.21;;
70450;SDS011;58869;51.982;4.450;2023-04-29T04:09:03;22.36;;;22.03;;
70450;SDS011;58869;51.982;4.450;2023-04-29T04:11:29;21.59;;;21.31;;
70450;SDS011;58869;51.982;4.450;2023-04-29T04:13:55;21.31;;;21.23;;
70450;SDS011;58869;51.982;4.450;2023-04-29T04:16:20;21.00;;;20.91;;
70450;SDS011;58869;51.982;4.450;2023-04-29T04:18:46;21.88;;;21.72;;
70450;SDS011;58869;51.982;4.450;2023-04-29T04:21:11;22.30;;;22.05;;
70450;SDS011;58869;51.982;4.450;2023-04-29T04:23:37;21.41;;;21.16;;
70450;SDS011;58869;51.982;4.450;2023-04-29T04:26:06;22.02;;;21.89;;
70450;SDS011;58869;51.982;4.450;2023-04-29T04:28:32;21.30;;;21.29;;
70450;SDS011;58869;51.982;4.450;2023-04-29T04:30:57;22.16;;;21.66;;
70450;SDS011;58869;51.982;4.450;2023-04-29T04:33:23;21.32;;;21.11;;
70450;SDS011;58869;51.982;4.450;2023-04-29T04:35:56;20.60;;;20.47;;
70450;SDS011;58869;51.982;4.450;2023-04-29T04:38:21;21.23;;;21.21;;
70450;SDS011;58869;51.982;4.450;2023-04-29T04:40:49;21.07;;;21.04;;
70450;SDS011;58869;51.982;4.450;2023-04-29T04:43:14;21.22;;;21.06;;
70450;SDS011;58869;51.982;4.450;2023-04-29T04:45:41;21.50;;;21.23;;
70450;SDS011;58869;51.982;4.450;2023-04-29T04:48:07;21.12;;;21.02;;
70450;SDS011;58869;51.982;4.450;2023-04-29T05:02:15;21.51;;;21.35;;
70450;SDS011;58869;51.982;4.450;2023-04-29T05:04:45;22.33;;;22.15;;
70450;SDS011;58869;51.982;4.450;2023-04-29T05:07:10;22.49;;;22.01;;
70450;SDS011;58869;51.982;4.450;2023-04-29T05:09:39;21.35;;;21.04;;
70450;SDS011;58869;51.982;4.450;2023-04-29T05:12:05;21.81;;;21.72;;
70450;SDS011;58869;51.982;4.450;2023-04-29T05:14:31;21.95;;;21.88;;
70450;SDS011;58869;51.982;4.450;2023-04-29T05:16:59;21.94;;;21.60;;
70450;SDS011;58869;51.982;4.450;2023-04-29T05:19:25;22.50;;;22.05;;
70450;SDS011;58869;51.982;4.450;2023-04-29T05:21:56;22.81;;;22.42;;
70450;SDS011;58869;51.982;4.450;2023-04-29T05:24:31;23.58;;;23.17;;
70450;SDS011;58869;51.982;4.450;2023-04-29T05:26:56;23.45;;;23.01;;
70450;SDS011;58869;51.982;4.450;2023-04-29T05:29:31;24.05;;;23.69;;
70450;SDS011;58869;51.982;4.450;2023-04-29T05:31:57;25.03;;;24.61;;
70450;SDS011;58869;51.982;4.450;2023-04-29T05:34:29;25.44;;;25.07;;
70450;SDS011;58869;51.982;4.450;2023-04-29T05:36:59;25.62;;;25.37;;
70450;SDS011;58869;51.982;4.450;2023-04-29T05:39:24;25.71;;;25.04;;
70450;SDS011;58869;51.982;4.450;2023-04-29T05:41:51;26.38;;;25.66;;
70450;SDS011;58869;51.982;4.450;2023-04-29T05:44:17;27.05;;;26.40;;
70450;SDS011;58869;51.982;4.450;2023-04-29T05:46:42;28.36;;;27.49;;
70450;SDS011;58869;51.982;4.450;2023-04-29T05:49:08;28.41;;;27.82;;
70450;SDS011;58869;51.982;4.450;2023-04-29T05:51:33;28.65;;;28.19;;
70450;SDS011;58869;51.982;4.450;2023-04-29T05:53:59;28.33;;;27.91;;
70450;SDS011;58869;51.982;4.450;2023-04-29T05:56:30;28.38;;;27.76;;
70450;SDS011;58869;51.982;4.450;2023-04-29T05:58:59;28.80;;;28.06;;
70450;SDS011;58869;51.982;4.450;2023-04-29T06:01:27;27.51;;;27.02;;
70450;SDS011;58869;51.982;4.450;2023-04-29T06:03:56;28.20;;;27.59;;
70450;SDS011;58869;51.982;4.450;2023-04-29T06:06:31;28.21;;;27.57;;
70450;SDS011;58869;51.982;4.450;2023-04-29T06:08:57;27.97;;;27.37;;
70450;SDS011;58869;51.982;4.450;2023-04-29T06:11:22;27.44;;;26.77;;
70450;SDS011;58869;51.982;4.450;2023-04-29T06:13:48;27.39;;;26.62;;
70450;SDS011;58869;51.982;4.450;2023-04-29T06:16:13;26.53;;;25.97;;
70450;SDS011;58869;51.982;4.450;2023-04-29T06:18:42;26.19;;;25.47;;
70450;SDS011;58869;51.982;4.450;2023-04-29T06:21:08;24.46;;;23.87;;
70450;SDS011;58869;51.982;4.450;2023-04-29T06:23:34;24.05;;;23.41;;
70450;SDS011;58869;51.982;4.450;2023-04-29T06:26:06;22.61;;;22.24;;
70450;SDS011;58869;51.982;4.450;2023-04-29T06:28:31;22.18;;;21.67;;
70450;SDS011;58869;51.982;4.450;2023-04-29T06:31:03;22.00;;;21.53;;
70450;SDS011;58869;51.982;4.450;2023-04-29T06:33:37;20.84;;;20.52;;
70450;SDS011;58869;51.982;4.450;2023-04-29T06:36:03;21.23;;;20.81;;
70450;SDS011;58869;51.982;4.450;2023-04-29T06:38:41;20.17;;;19.98;;
70450;SDS011;58869;51.982;4.450;2023-04-29T06:41:06;20.62;;;20.13;;
70450;SDS011;58869;51.982;4.450;2023-04-29T06:43:34;19.33;;;19.33;;
70450;SDS011;58869;51.982;4.450;2023-04-29T06:46:00;19.06;;;18.94;;
70450;SDS011;58869;51.982;4.450;2023-04-29T06:48:32;19.41;;;18.98;;
70450;SDS011;58869;51.982;4.450;2023-04-29T06:51:19;18.87;;;18.78;;
70450;SDS011;58869;51.982;4.450;2023-04-29T06:54:09;19.85;;;19.31;;
70450;SDS011;58869;51.982;4.450;2023-04-29T06:56:38;18.81;;;18.80;;
70450;SDS011;58869;51.982;4.450;2023-04-29T06:59:06;18.86;;;18.83;;
70450;SDS011;58869;51.982;4.450;2023-04-29T07:01:36;19.07;;;18.85;;
70450;SDS011;58869;51.982;4.450;2023-04-29T07:04:03;19.79;;;19.64;;
70450;SDS011;58869;51.982;4.450;2023-04-29T07:06:30;18.60;;;18.44;;
70450;SDS011;58869;51.982;4.450;2023-04-29T07:08:58;18.51;;;18.50;;
70450;SDS011;58869;51.982;4.450;2023-04-29T07:11:23;19.09;;;18.74;;
70450;SDS011;58869;51.982;4.450;2023-04-29T07:13:55;18.00;;;17.48;;
70450;SDS011;58869;51.982;4.450;2023-04-29T07:16:23;17.33;;;17.07;;
70450;SDS011;58869;51.982;4.450;2023-04-29T07:18:50;16.44;;;16.41;;
70450;SDS011;58869;51.982;4.450;2023-04-29T07:21:18;16.95;;;16.91;;
70450;SDS011;58869;51.982;4.450;2023-04-29T07:24:06;17.15;;;17.05;;
70450;SDS011;58869;51.982;4.450;2023-04-29T07:26:31;16.44;;;16.39;;
70450;SDS011;58869;51.982;4.450;2023-04-29T07:28:58;16.30;;;16.19;;
70450;SDS011;58869;51.982;4.450;2023-04-29T07:31:24;15.17;;;15.07;;
70450;SDS011;58869;51.982;4.450;2023-04-29T07:33:49;14.09;;;14.01;;
70450;SDS011;58869;51.982;4.450;2023-04-29T07:36:15;13.29;;;13.22;;
70450;SDS011;58869;51.982;4.450;2023-04-29T07:38:40;12.87;;;12.83;;
70450;SDS011;58869;51.982;4.450;2023-04-29T07:41:06;12.59;;;12.48;;
70450;SDS011;58869;51.982;4.450;2023-04-29T07:43:31;11.92;;;11.92;;
70450;SDS011;58869;51.982;4.450;2023-04-29T07:45:57;11.85;;;11.85;;
70450;SDS011;58869;51.982;4.450;2023-04-29T07:48:35;12.33;;;12.27;;
70450;SDS011;58869;51.982;4.450;2023-04-29T07:51:11;11.86;;;11.86;;
70450;SDS011;58869;51.982;4.450;2023-04-29T07:53:37;12.29;;;12.29;;
70450;SDS011;58869;51.982;4.450;2023-04-29T07:56:08;12.84;;;12.83;;
70450;SDS011;58869;51.982;4.450;2023-04-29T07:58:37;12.63;;;12.62;;
70450;SDS011;58869;51.982;4.450;2023-04-29T08:01:11;12.48;;;12.47;;
70450;SDS011;58869;51.982;4.450;2023-04-29T08:03:40;12.47;;;12.46;;
70450;SDS011;58869;51.982;4.450;2023-04-29T08:06:06;12.71;;;12.67;;
70450;SDS011;58869;51.982;4.450;2023-04-29T08:08:39;12.57;;;12.57;;
70450;SDS011;58869;51.982;4.450;2023-04-29T08:11:04;12.64;;;12.64;;
70450;SDS011;58869;51.982;4.450;2023-04-29T08:13:30;12.37;;;12.37;;
70450;SDS011;58869;51.982;4.450;2023-04-29T08:16:00;12.06;;;12.06;;
70450;SDS011;58869;51.982;4.450;2023-04-29T08:18:26;12.38;;;12.38;;
70450;SDS011;58869;51.982;4.450;2023-04-29T08:20:52;11.90;;;11.90;;
70450;SDS011;58869;51.982;4.450;2023-04-29T08:23:17;11.59;;;11.59;;
70450;SDS011;58869;51.982;4.450;2023-04-29T08:25:43;11.76;;;11.76;;
70450;SDS011;58869;51.982;4.450;2023-04-29T08:28:08;11.22;;;11.22;;
70450;SDS011;58869;51.982;4.450;2023-04-29T08:30:40;11.17;;;11.17;;
70450;SDS011;58869;51.982;4.450;2023-04-29T08:33:06;11.42;;;11.42;;
70450;SDS011;58869;51.982;4.450;2023-04-29T08:35:41;11.15;;;11.15;;
70450;SDS011;58869;51.982;4.450;2023-04-29T08:38:38;11.28;;;11.28;;
70450;SDS011;58869;51.982;4.450;2023-04-29T08:41:06;11.11;;;11.11;;
70450;SDS011;58869;51.982;4.450;2023-04-29T08:43:34;11.31;;;11.31;;
70450;SDS011;58869;51.982;4.450;2023-04-29T08:46:07;11.33;;;11.33;;
70450;SDS011;58869;51.982;4.450;2023-04-29T08:48:43;10.75;;;10.75;;
70450;SDS011;58869;51.982;4.450;2023-04-29T08:51:15;10.70;;;10.70;;
70450;SDS011;58869;51.982;4.450;2023-04-29T08:53:57;10.92;;;10.92;;
70450;SDS011;58869;51.982;4.450;2023-04-29T08:56:22;10.75;;;10.75;;
70450;SDS011;58869;51.982;4.450;2023-04-29T08:58:51;10.52;;;10.52;;
70450;SDS011;58869;51.982;4.450;2023-04-29T09:01:22;10.06;;;10.06;;
70450;SDS011;58869;51.982;4.450;2023-04-29T09:03:49;10.29;;;10.29;;
70450;SDS011;58869;51.982;4.450;2023-04-29T09:06:29;10.42;;;10.42;;
70450;SDS011;58869;51.982;4.450;2023-04-29T09:08:58;10.49;;;10.49;;
70450;SDS011;58869;51.982;4.450;2023-04-29T09:11:25;10.45;;;10.45;;
70450;SDS011;58869;51.982;4.450;2023-04-29T09:13:52;10.64;;;10.64;;
70450;SDS011;58869;51.982;4.450;2023-04-29T09:16:23;10.87;;;10.86;;
70450;SDS011;58869;51.982;4.450;2023-04-29T09:18:53;10.31;;;10.31;;
70450;SDS011;58869;51.982;4.450;2023-04-29T09:24:41;11.05;;;11.05;;
70450;SDS011;58869;51.982;4.450;2023-04-29T09:27:07;11.06;;;11.06;;
70450;SDS011;58869;51.982;4.450;2023-04-29T09:29:36;10.52;;;10.52;;
70450;SDS011;58869;51.982;4.450;2023-04-29T09:32:17;10.79;;;10.79;;
70450;SDS011;58869;51.982;4.450;2023-04-29T09:34:46;10.79;;;10.79;;
70450;SDS011;58869;51.982;4.450;2023-04-29T09:37:25;10.67;;;10.67;;
70450;SDS011;58869;51.982;4.450;2023-04-29T09:40:32;10.55;;;10.55;;
70450;SDS011;58869;51.982;4.450;2023-04-29T09:43:17;10.42;;;10.42;;
70450;SDS011;58869;51.982;4.450;2023-04-29T09:45:55;10.89;;;10.89;;
70450;SDS011;58869;51.982;4.450;2023-04-29T09:48:21;10.83;;;10.83;;
70450;SDS011;58869;51.982;4.450;2023-04-29T09:50:57;11.01;;;11.01;;
70450;SDS011;58869;51.982;4.450;2023-04-29T09:53:33;11.75;;;11.75;;
70450;SDS011;58869;51.982;4.450;2023-04-29T09:56:20;11.07;;;11.07;;
70450;SDS011;58869;51.982;4.450;2023-04-29T09:58:46;10.68;;;10.68;;
70450;SDS011;58869;51.982;4.450;2023-04-29T10:01:39;9.98;;;9.98;;
70450;SDS011;58869;51.982;4.450;2023-04-29T10:04:05;10.49;;;10.49;;
70450;SDS011;58869;51.982;4.450;2023-04-29T10:06:39;11.27;;;11.25;;
70450;SDS011;58869;51.982;4.450;2023-04-29T10:09:07;10.52;;;10.52;;
70450;SDS011;58869;51.982;4.450;2023-04-29T10:11:40;10.79;;;10.79;;
70450;SDS011;58869;51.982;4.450;2023-04-29T10:14:16;11.30;;;11.29;;
70450;SDS011;58869;51.982;4.450;2023-04-29T10:20:13;10.35;;;10.35;;
70450;SDS011;58869;51.982;4.450;2023-04-29T10:22:47;10.01;;;10.01;;
70450;SDS011;58869;51.982;4.450;2023-04-29T10:25:35;10.17;;;10.17;;
70450;SDS011;58869;51.982;4.450;2023-04-29T10:28:23;10.59;;;10.59;;
70450;SDS011;58869;51.982;4.450;2023-04-29T10:31:00;10.26;;;10.26;;
70450;SDS011;58869;51.982;4.450;2023-04-29T10:33:38;9.83;;;9.83;;
70450;SDS011;58869;51.982;4.450;2023-04-29T10:36:06;9.71;;;9.71;;
70450;SDS011;58869;51.982;4.450;2023-04-29T10:38:46;10.08;;;10.08;;
70450;SDS011;58869;51.982;4.450;2023-04-29T10:48:17;8.12;;;8.12;;
70450;SDS011;58869;51.982;4.450;2023-04-29T10:53:29;9.28;;;9.28;;
70450;SDS011;58869;51.982;4.450;2023-04-29T10:59:02;8.53;;;8.53;;
70450;SDS011;58869;51.982;4.450;2023-04-29T11:08:47;8.78;;;8.78;;
70450;SDS011;58869;51.982;4.450;2023-04-29T11:11:13;8.45;;;8.45;;
70450;SDS011;58869;51.982;4.450;2023-04-29T11:13:40;8.40;;;8.40;;
70450;SDS011;58869;51.982;4.450;2023-04-29T11:16:10;9.32;;;9.32;;
70450;SDS011;58869;51.982;4.450;2023-04-29T11:22:02;9.32;;;9.32;;
70450;SDS011;58869;51.982;4.450;2023-04-29T11:25:08;8.88;;;8.88;;
70450;SDS011;58869;51.982;4.450;2023-04-29T11:27:44;9.76;;;9.76;;
70450;SDS011;58869;51.982;4.450;2023-04-29T11:30:15;9.62;;;9.62;;
70450;SDS011;58869;51.982;4.450;2023-04-29T11:32:47;9.04;;;9.04;;
70450;SDS011;58869;51.982;4.450;2023-04-29T11:35:21;9.17;;;9.17;;
70450;SDS011;58869;51.982;4.450;2023-04-29T11:49:47;8.64;;;8.64;;
70450;SDS011;58869;51.982;4.450;2023-04-29T11:52:15;8.78;;;8.78;;
70450;SDS011;58869;51.982;4.450;2023-04-29T11:54:43;8.69;;;8.69;;
70450;SDS011;58869;51.982;4.450;2023-04-29T11:57:10;8.01;;;8.01;;
70450;SDS011;58869;51.982;4.450;2023-04-29T11:59:44;7.75;;;7.75;;
70450;SDS011;58869;51.982;4.450;2023-04-29T12:02:29;8.09;;;8.09;;
70450;SDS011;58869;51.982;4.450;2023-04-29T12:05:07;8.04;;;8.04;;
70450;SDS011;58869;51.982;4.450;2023-04-29T12:07:33;9.06;;;9.06;;
70450;SDS011;58869;51.982;4.450;2023-04-29T12:10:00;9.10;;;9.10;;
70450;SDS011;58869;51.982;4.450;2023-04-29T12:12:25;8.79;;;8.79;;
70450;SDS011;58869;51.982;4.450;2023-04-29T12:15:01;9.41;;;9.41;;
70450;SDS011;58869;51.982;4.450;2023-04-29T12:17:48;9.95;;;9.95;;
70450;SDS011;58869;51.982;4.450;2023-04-29T12:20:13;9.12;;;9.12;;
70450;SDS011;58869;51.982;4.450;2023-04-29T12:22:48;9.20;;;9.20;;
70450;SDS011;58869;51.982;4.450;2023-04-29T12:25:16;8.71;;;8.71;;
70450;SDS011;58869;51.982;4.450;2023-04-29T12:27:48;9.11;;;9.11;;
70450;SDS011;58869;51.982;4.450;2023-04-29T12:30:13;9.34;;;9.34;;
70450;SDS011;58869;51.982;4.450;2023-04-29T12:32:57;9.35;;;9.35;;
70450;SDS011;58869;51.982;4.450;2023-04-29T12:35:23;9.16;;;9.16;;
70450;SDS011;58869;51.982;4.450;2023-04-29T12:37:49;9.30;;;9.30;;
70450;SDS011;58869;51.982;4.450;2023-04-29T12:40:15;8.96;;;8.96;;
70450;SDS011;58869;51.982;4.450;2023-04-29T12:42:42;9.70;;;9.70;;
70450;SDS011;58869;51.982;4.450;2023-04-29T12:48:04;9.79;;;9.79;;
70450;SDS011;58869;51.982;4.450;2023-04-29T12:53:11;9.81;;;9.81;;
70450;SDS011;58869;51.982;4.450;2023-04-29T12:55:49;9.91;;;9.91;;
70450;SDS011;58869;51.982;4.450;2023-04-29T12:58:20;9.93;;;9.93;;
70450;SDS011;58869;51.982;4.450;2023-04-29T13:00:52;10.08;;;10.08;;
70450;SDS011;58869;51.982;4.450;2023-04-29T13:03:32;10.09;;;10.09;;
70450;SDS011;58869;51.982;4.450;2023-04-29T13:06:10;9.88;;;9.88;;
70450;SDS011;58869;51.982;4.450;2023-04-29T13:14:29;9.57;;;9.57;;
70450;SDS011;58869;51.982;4.450;2023-04-29T13:17:04;9.44;;;9.44;;
70450;SDS011;58869;51.982;4.450;2023-04-29T13:19:30;9.66;;;9.66;;
70450;SDS011;58869;51.982;4.450;2023-04-29T13:21:57;9.28;;;9.28;;
70450;SDS011;58869;51.982;4.450;2023-04-29T13:24:22;9.63;;;9.63;;
70450;SDS011;58869;51.982;4.450;2023-04-29T13:26:47;9.52;;;9.52;;
70450;SDS011;58869;51.982;4.450;2023-04-29T13:29:25;10.22;;;10.22;;
70450;SDS011;58869;51.982;4.450;2023-04-29T13:34:52;9.14;;;9.14;;
70450;SDS011;58869;51.982;4.450;2023-04-29T13:37:30;8.40;;;8.40;;
70450;SDS011;58869;51.982;4.450;2023-04-29T13:39:58;8.74;;;8.74;;
70450;SDS011;58869;51.982;4.450;2023-04-29T13:42:30;8.38;;;8.38;;
70450;SDS011;58869;51.982;4.450;2023-04-29T13:44:55;8.14;;;8.14;;
70450;SDS011;58869;51.982;4.450;2023-04-29T13:47:27;8.50;;;8.50;;
70450;SDS011;58869;51.982;4.450;2023-04-29T13:49:52;9.08;;;9.08;;
70450;SDS011;58869;51.982;4.450;2023-04-29T13:52:30;9.31;;;9.30;;
70450;SDS011;58869;51.982;4.450;2023-04-29T13:54:56;10.20;;;10.20;;
70450;SDS011;58869;51.982;4.450;2023-04-29T13:57:38;11.07;;;11.07;;
70450;SDS011;58869;51.982;4.450;2023-04-29T14:00:04;10.31;;;10.31;;
70450;SDS011;58869;51.982;4.450;2023-04-29T14:02:33;11.34;;;11.34;;
70450;SDS011;58869;51.982;4.450;2023-04-29T14:05:10;10.55;;;10.55;;
70450;SDS011;58869;51.982;4.450;2023-04-29T14:07:36;9.74;;;9.74;;
70450;SDS011;58869;51.982;4.450;2023-04-29T14:10:08;8.90;;;8.90;;
70450;SDS011;58869;51.982;4.450;2023-04-29T14:12:37;8.52;;;8.52;;
70450;SDS011;58869;51.982;4.450;2023-04-29T14:15:02;8.11;;;8.11;;
70450;SDS011;58869;51.982;4.450;2023-04-29T14:17:28;7.42;;;7.42;;
70450;SDS011;58869;51.982;4.450;2023-04-29T14:19:54;7.56;;;7.56;;
70450;SDS011;58869;51.982;4.450;2023-04-29T14:22:31;8.01;;;8.01;;
70450;SDS011;58869;51.982;4.450;2023-04-29T14:24:56;7.87;;;7.87;;
70450;SDS011;58869;51.982;4.450;2023-04-29T14:27:22;7.30;;;7.30;;
70450;SDS011;58869;51.982;4.450;2023-04-29T14:29:47;6.42;;;6.42;;
70450;SDS011;58869;51.982;4.450;2023-04-29T14:32:16;6.54;;;6.54;;
70450;SDS011;58869;51.982;4.450;2023-04-29T14:34:47;6.79;;;6.79;;
70450;SDS011;58869;51.982;4.450;2023-04-29T14:37:13;7.50;;;7.50;;
70450;SDS011;58869;51.982;4.450;2023-04-29T14:42:37;8.09;;;8.09;;
70450;SDS011;58869;51.982;4.450;2023-04-29T14:45:23;8.23;;;8.23;;
70450;SDS011;58869;51.982;4.450;2023-04-29T14:48:01;8.20;;;8.20;;
70450;SDS011;58869;51.982;4.450;2023-04-29T14:50:38;7.85;;;7.85;;
70450;SDS011;58869;51.982;4.450;2023-04-29T14:53:04;8.15;;;8.15;;
70450;SDS011;58869;51.982;4.450;2023-04-29T14:55:31;8.48;;;8.48;;
70450;SDS011;58869;51.982;4.450;2023-04-29T14:57:57;8.89;;;8.89;;
70450;SDS011;58869;51.982;4.450;2023-04-29T15:00:22;8.52;;;8.52;;
70450;SDS011;58869;51.982;4.450;2023-04-29T15:02:54;8.70;;;8.70;;
70450;SDS011;58869;51.982;4.450;2023-04-29T15:05:33;8.17;;;8.17;;
70450;SDS011;58869;51.982;4.450;2023-04-29T15:08:00;8.13;;;8.13;;
70450;SDS011;58869;51.982;4.450;2023-04-29T15:10:29;7.61;;;7.61;;
70450;SDS011;58869;51.982;4.450;2023-04-29T15:13:04;7.87;;;7.87;;
70450;SDS011;58869;51.982;4.450;2023-04-29T15:15:32;7.37;;;7.37;;
70450;SDS011;58869;51.982;4.450;2023-04-29T15:18:00;7.18;;;7.18;;
70450;SDS011;58869;51.982;4.450;2023-04-29T15:20:29;8.00;;;8.00;;
70450;SDS011;58869;51.982;4.450;2023-04-29T15:23:09;7.90;;;7.90;;
70450;SDS011;58869;51.982;4.450;2023-04-29T15:25:48;8.35;;;8.35;;
70450;SDS011;58869;51.982;4.450;2023-04-29T15:28:14;8.05;;;8.05;;
70450;SDS011;58869;51.982;4.450;2023-04-29T15:30:45;8.50;;;8.50;;
70450;SDS011;58869;51.982;4.450;2023-04-29T15:33:11;8.16;;;8.16;;
70450;SDS011;58869;51.982;4.450;2023-04-29T15:35:39;8.07;;;8.07;;
70450;SDS011;58869;51.982;4.450;2023-04-29T15:38:05;8.14;;;8.14;;
70450;SDS011;58869;51.982;4.450;2023-04-29T15:44:21;7.43;;;7.43;;
70450;SDS011;58869;51.982;4.450;2023-04-29T15:46:53;7.85;;;7.85;;
70450;SDS011;58869;51.982;4.450;2023-04-29T15:49:19;7.58;;;7.58;;
70450;SDS011;58869;51.982;4.450;2023-04-29T15:51:47;8.18;;;8.18;;
70450;SDS011;58869;51.982;4.450;2023-04-29T15:54:13;7.38;;;7.38;;
70450;SDS011;58869;51.982;4.450;2023-04-29T15:56:44;7.31;;;7.31;;
70450;SDS011;58869;51.982;4.450;2023-04-29T15:59:16;8.91;;;8.91;;
70450;SDS011;58869;51.982;4.450;2023-04-29T16:01:54;12.14;;;12.14;;
70450;SDS011;58869;51.982;4.450;2023-04-29T16:10:24;8.30;;;8.30;;
70450;SDS011;58869;51.982;4.450;2023-04-29T16:12:50;7.45;;;7.45;;
70450;SDS011;58869;51.982;4.450;2023-04-29T16:21:13;6.90;;;6.90;;
70450;SDS011;58869;51.982;4.450;2023-04-29T16:23:38;7.07;;;7.07;;
70450;SDS011;58869;51.982;4.450;2023-04-29T16:26:07;6.82;;;6.82;;
70450;SDS011;58869;51.982;4.450;2023-04-29T16:28:48;6.74;;;6.74;;
70450;SDS011;58869;51.982;4.450;2023-04-29T16:31:14;6.06;;;5.99;;
70450;SDS011;58869;51.982;4.450;2023-04-29T16:33:49;5.94;;;5.94;;